Bila Tserkva, Ukraine
Current Conditions -  °F | °C
As of 6:00 PM on Friday 24 Oct 2014 (Local Time) from UKKK Reporting Station
Clear Clear  
Wind Chill: 19°   Ceiling: Unl
Heat Index: 30°   Visibility: 6mi
Dew Point: 12°   Wind: 16mph
Humidity: 47%   Direction: 60°ENE
Pressure: 30.48"   Gusts: NA
Location:  49.78°N, 30.12°E
Report Text: UKKK 241500Z 06007MPS CAVOK M01/M11 Q1032 08CLRD70 NOSIG
Loading
Personal Weather Stations






























Interactive Weather Map
Tropical Storm Tracking
New forecast layout! Learn more

10-Day Weather Forecast

Advertisements
Track Severe Weather on mobile